createdAt,value
2023-05-08T00:01:34.442Z,13.67
2023-05-08T00:04:04.838Z,12.67
2023-05-08T00:06:38.270Z,13.53
2023-05-08T00:09:11.814Z,13.40
2023-05-08T00:11:45.936Z,12.70
2023-05-08T00:14:13.679Z,12.73
2023-05-08T00:16:40.771Z,12.90
2023-05-08T00:19:24.610Z,13.87
2023-05-08T00:21:54.634Z,11.90
2023-05-08T00:24:21.930Z,11.70
2023-05-08T00:26:48.669Z,11.20
2023-05-08T00:29:17.432Z,11.53
2023-05-08T00:31:44.422Z,10.00
2023-05-08T00:34:11.329Z,10.67
2023-05-08T00:36:38.122Z,10.10
2023-05-08T00:39:04.935Z,9.53
2023-05-08T00:41:31.778Z,9.50
2023-05-08T00:43:58.657Z,9.53
2023-05-08T00:46:25.411Z,8.97
2023-05-08T00:48:52.515Z,9.33
2023-05-08T00:51:19.256Z,8.53
2023-05-08T00:53:46.763Z,8.10
2023-05-08T00:56:15.464Z,8.77
2023-05-08T00:58:42.677Z,8.37
2023-05-08T01:01:09.622Z,9.43
2023-05-08T01:03:36.734Z,8.20
2023-05-08T01:06:05.154Z,8.27
2023-05-08T01:08:32.260Z,8.13
2023-05-08T01:11:38.315Z,8.57
2023-05-08T01:14:05.137Z,9.27
2023-05-08T01:16:47.073Z,9.50
2023-05-08T01:19:32.948Z,9.37
2023-05-08T01:22:02.924Z,9.03
2023-05-08T01:24:35.906Z,9.73
2023-05-08T01:27:30.501Z,9.27
2023-05-08T01:30:25.309Z,8.87
2023-05-08T01:32:58.466Z,8.57
2023-05-08T01:35:44.162Z,8.50
2023-05-08T01:38:16.779Z,8.53
2023-05-08T01:40:51.919Z,8.30
2023-05-08T01:43:57.173Z,8.57
2023-05-08T01:46:26.563Z,8.43
2023-05-08T01:49:03.585Z,8.87
2023-05-08T01:51:37.697Z,8.50
2023-05-08T01:54:09.477Z,9.20
2023-05-08T01:56:38.446Z,9.00
2023-05-08T01:59:05.750Z,9.13
2023-05-08T02:01:33.504Z,9.57
2023-05-08T02:04:00.623Z,8.80
2023-05-08T02:06:28.529Z,10.07
2023-05-08T02:08:56.338Z,8.60
2023-05-08T02:11:24.734Z,10.60
2023-05-08T02:13:52.090Z,17.17
2023-05-08T02:16:19.613Z,18.87
2023-05-08T02:18:52.598Z,20.37
2023-05-08T02:21:20.101Z,20.93
2023-05-08T02:23:47.129Z,21.70
2023-05-08T02:26:17.242Z,22.50
2023-05-08T02:28:47.058Z,23.60
2023-05-08T02:31:17.730Z,25.40
2023-05-08T02:33:45.436Z,26.37
2023-05-08T02:36:14.616Z,25.43
2023-05-08T02:38:44.715Z,26.63
2023-05-08T02:41:14.152Z,27.30
2023-05-08T02:43:41.215Z,26.40
2023-05-08T02:46:45.319Z,26.30
2023-05-08T02:49:32.600Z,28.30
2023-05-08T02:52:08.945Z,27.20
2023-05-08T02:54:40.554Z,28.73
2023-05-08T02:57:37.978Z,29.27
2023-05-08T03:00:13.214Z,27.80
2023-05-08T03:02:49.052Z,28.77
2023-05-08T03:05:17.566Z,28.40
2023-05-08T03:07:45.838Z,27.40
2023-05-08T03:10:15.736Z,29.60
2023-05-08T03:12:50.472Z,31.73
2023-05-08T03:15:24.222Z,29.73
2023-05-08T03:17:53.723Z,30.77
2023-05-08T03:20:23.136Z,31.07
2023-05-08T03:23:02.754Z,33.03
2023-05-08T03:25:30.535Z,32.77
2023-05-08T03:27:58.954Z,33.13
2023-05-08T03:30:29.124Z,32.93
2023-05-08T03:33:05.871Z,35.80
2023-05-08T03:35:35.550Z,33.47
2023-05-08T03:38:02.638Z,35.37
2023-05-08T03:40:30.206Z,35.03
2023-05-08T03:43:00.653Z,34.60
2023-05-08T03:45:28.373Z,34.40
2023-05-08T03:47:56.214Z,33.73
2023-05-08T03:50:28.020Z,36.07
2023-05-08T03:53:05.586Z,36.67
2023-05-08T03:55:35.306Z,36.33
2023-05-08T03:58:19.085Z,36.47
2023-05-08T04:00:49.814Z,36.30
2023-05-08T04:03:28.850Z,37.57
2023-05-08T04:06:42.082Z,37.07
2023-05-08T04:09:40.121Z,39.20
2023-05-08T04:12:27.100Z,38.23
2023-05-08T04:14:59.190Z,38.90
2023-05-08T04:17:39.671Z,39.40
2023-05-08T04:20:18.332Z,39.17
2023-05-08T04:22:58.333Z,37.23
2023-05-08T04:25:29.229Z,38.83
2023-05-08T04:27:58.590Z,39.13
2023-05-08T04:30:28.018Z,37.47
2023-05-08T04:33:01.364Z,38.43
2023-05-08T04:35:28.782Z,39.20
2023-05-08T04:38:05.567Z,39.07
2023-05-08T04:40:33.762Z,39.53
2023-05-08T04:43:03.025Z,40.57
2023-05-08T04:45:29.945Z,39.50
2023-05-08T04:48:03.026Z,40.33
2023-05-08T04:50:30.779Z,38.73
2023-05-08T04:52:58.813Z,38.77
2023-05-08T04:55:26.334Z,40.23
2023-05-08T04:58:02.423Z,41.30
2023-05-08T05:00:29.766Z,42.17
2023-05-08T05:02:57.338Z,39.63
2023-05-08T05:05:26.635Z,41.43
2023-05-08T05:07:57.535Z,42.73
2023-05-08T05:10:28.652Z,40.13
2023-05-08T05:12:59.175Z,41.60
2023-05-08T05:15:26.237Z,43.53
2023-05-08T05:17:53.595Z,42.43
2023-05-08T05:20:20.798Z,44.20
2023-05-08T05:22:47.586Z,44.87
2023-05-08T05:25:16.975Z,42.43
2023-05-08T05:27:45.253Z,42.80
2023-05-08T05:30:12.621Z,44.33
2023-05-08T05:32:39.789Z,43.03
2023-05-08T05:35:07.725Z,43.93
2023-05-08T05:37:34.583Z,43.70
2023-05-08T05:40:01.610Z,43.20
2023-05-08T05:42:30.137Z,42.67
2023-05-08T05:44:57.095Z,44.20
2023-05-08T05:47:24.201Z,42.67
2023-05-08T05:49:51.346Z,44.00
2023-05-08T05:52:18.242Z,43.77
2023-05-08T05:54:46.882Z,42.77
2023-05-08T05:57:14.120Z,44.20
2023-05-08T05:59:41.809Z,40.97
2023-05-08T06:02:10.677Z,42.23
2023-05-08T06:04:38.390Z,43.30
2023-05-08T06:07:06.890Z,40.27
2023-05-08T06:09:33.735Z,41.60
2023-05-08T06:12:00.723Z,40.87
2023-05-08T06:14:27.730Z,39.70
2023-05-08T06:16:54.419Z,38.60
2023-05-08T06:19:21.457Z,37.43
2023-05-08T06:21:48.301Z,36.70
2023-05-08T06:24:15.691Z,35.90
2023-05-08T06:26:42.500Z,34.43
2023-05-08T06:29:09.376Z,34.33
2023-05-08T06:31:36.206Z,35.63
2023-05-08T06:34:03.186Z,33.77
2023-05-08T06:36:29.982Z,36.37
2023-05-08T06:38:56.930Z,36.20
2023-05-08T06:41:23.758Z,37.07
2023-05-08T06:43:50.658Z,35.83
2023-05-08T06:46:18.239Z,36.37
2023-05-08T06:48:45.014Z,36.53
2023-05-08T06:51:11.960Z,35.63
2023-05-08T06:53:40.949Z,37.50
2023-05-08T06:56:07.973Z,38.20
2023-05-08T06:58:35.771Z,38.53
2023-05-08T07:01:02.472Z,38.67
2023-05-08T07:03:29.208Z,37.33
2023-05-08T07:05:56.149Z,40.53
2023-05-08T07:08:23.037Z,39.40
2023-05-08T07:10:49.882Z,38.77
2023-05-08T07:13:20.093Z,40.90
2023-05-08T07:15:56.889Z,38.40
2023-05-08T07:18:23.921Z,39.70
2023-05-08T07:20:50.825Z,39.53
2023-05-08T07:23:17.579Z,39.20
2023-05-08T07:25:44.514Z,41.57
2023-05-08T07:28:11.947Z,39.37
2023-05-08T07:30:39.164Z,40.17
2023-05-08T07:33:06.832Z,39.57
2023-05-08T07:35:42.545Z,38.80
2023-05-08T07:38:09.465Z,41.53
2023-05-08T07:40:36.154Z,40.53
2023-05-08T07:43:04.133Z,38.33
2023-05-08T07:45:30.961Z,39.00
2023-05-08T07:47:59.047Z,38.73
2023-05-08T07:50:26.621Z,39.07
2023-05-08T07:52:53.991Z,40.53
2023-05-08T07:55:21.692Z,38.40
2023-05-08T07:57:48.568Z,36.03
2023-05-08T08:00:16.094Z,37.37
2023-05-08T08:02:44.343Z,34.93
2023-05-08T08:05:11.819Z,32.73
2023-05-08T08:07:42.708Z,33.80
2023-05-08T08:10:09.954Z,31.00
2023-05-08T08:12:36.769Z,32.87
2023-05-08T08:15:03.790Z,30.83
2023-05-08T08:17:30.595Z,33.13
2023-05-08T08:19:57.666Z,30.53
2023-05-08T08:22:24.914Z,30.27
2023-05-08T08:24:54.658Z,29.90
2023-05-08T08:27:22.104Z,30.70
2023-05-08T08:29:48.959Z,30.67
2023-05-08T08:32:15.945Z,28.47
2023-05-08T08:34:42.973Z,28.77
2023-05-08T08:37:09.649Z,28.43
2023-05-08T08:39:36.644Z,25.87
2023-05-08T08:42:03.860Z,26.00
2023-05-08T08:44:30.645Z,28.50
2023-05-08T08:46:59.148Z,27.00
2023-05-08T08:49:31.264Z,26.37
2023-05-08T08:52:04.068Z,27.37
2023-05-08T08:54:34.890Z,27.00
2023-05-08T08:57:02.253Z,26.50
2023-05-08T08:59:29.976Z,26.83
2023-05-08T09:01:59.064Z,24.33
2023-05-08T09:04:27.556Z,25.07
2023-05-08T09:06:55.147Z,25.60
2023-05-08T09:09:22.638Z,25.77
2023-05-08T09:11:49.565Z,26.83
2023-05-08T09:14:16.550Z,25.30
2023-05-08T09:16:43.828Z,25.17
2023-05-08T09:19:14.626Z,25.23
2023-05-08T09:21:41.693Z,26.10
2023-05-08T09:24:08.506Z,26.77
2023-05-08T09:26:39.741Z,25.93
2023-05-08T09:29:16.047Z,28.53
2023-05-08T09:31:46.820Z,27.47
2023-05-08T09:34:28.560Z,28.50
2023-05-08T09:36:56.717Z,27.73
2023-05-08T09:39:25.196Z,27.37
2023-05-08T09:42:02.872Z,29.03
2023-05-08T09:44:44.823Z,28.47
2023-05-08T09:47:21.814Z,30.90
2023-05-08T09:50:00.760Z,29.17
2023-05-08T09:52:31.520Z,29.10
2023-05-08T09:54:59.748Z,28.83
2023-05-08T09:57:32.071Z,29.30
2023-05-08T10:00:13.357Z,29.27
2023-05-08T10:02:42.370Z,24.53
2023-05-08T10:05:24.571Z,25.43
2023-05-08T10:07:51.976Z,26.23
2023-05-08T10:10:27.079Z,25.87
2023-05-08T10:12:57.680Z,27.20
2023-05-08T10:15:31.874Z,27.27
2023-05-08T10:18:06.426Z,25.87
2023-05-08T10:20:35.116Z,21.20
2023-05-08T10:23:02.315Z,22.33
2023-05-08T10:25:34.682Z,22.67
2023-05-08T10:28:18.008Z,22.37
2023-05-08T10:30:50.036Z,21.23
2023-05-08T10:33:21.624Z,20.73
2023-05-08T10:35:49.098Z,19.03
2023-05-08T10:38:18.534Z,18.13
2023-05-08T10:40:50.630Z,18.13
2023-05-08T10:43:19.501Z,19.57
2023-05-08T10:45:46.469Z,20.50
2023-05-08T10:48:30.862Z,15.93
2023-05-08T10:51:09.260Z,13.60
2023-05-08T10:53:54.793Z,12.20
2023-05-08T10:56:30.805Z,11.70
2023-05-08T10:58:59.266Z,11.63
2023-05-08T11:01:26.918Z,14.50
2023-05-08T11:03:56.261Z,14.27
2023-05-08T11:06:46.244Z,14.37
2023-05-08T11:09:43.408Z,14.63
2023-05-08T11:12:30.915Z,14.13
2023-05-08T11:15:05.238Z,13.27
2023-05-08T11:17:32.947Z,13.00
2023-05-08T11:20:02.759Z,12.50
2023-05-08T11:22:32.772Z,12.03
2023-05-08T11:25:00.371Z,13.50
2023-05-08T11:28:05.814Z,12.17
2023-05-08T11:30:32.617Z,11.63
2023-05-08T11:33:05.904Z,12.07
2023-05-08T11:35:56.743Z,11.33
2023-05-08T11:38:36.096Z,12.33
2023-05-08T11:41:08.083Z,11.43
2023-05-08T11:43:38.988Z,10.27
2023-05-08T11:46:17.110Z,10.53
2023-05-08T11:48:44.536Z,10.93
2023-05-08T11:51:11.609Z,10.10
2023-05-08T11:53:38.490Z,10.80
2023-05-08T11:56:06.019Z,9.93
2023-05-08T11:58:32.914Z,9.80
2023-05-08T12:00:59.758Z,10.77
2023-05-08T12:03:26.782Z,9.60
2023-05-08T12:05:58.229Z,10.20
2023-05-08T12:08:25.265Z,10.20
2023-05-08T12:10:58.561Z,10.87
2023-05-08T12:13:27.370Z,11.00
2023-05-08T12:15:59.532Z,12.27
2023-05-08T12:18:28.686Z,11.03
2023-05-08T12:21:01.752Z,11.77
2023-05-08T12:23:29.760Z,12.17
2023-05-08T12:26:00.973Z,14.10
2023-05-08T12:28:28.241Z,13.03
2023-05-08T12:30:55.350Z,14.63
2023-05-08T12:33:22.212Z,13.37
2023-05-08T12:35:49.536Z,13.20
2023-05-08T12:38:16.297Z,14.20
2023-05-08T12:40:52.953Z,13.07
2023-05-08T12:43:19.753Z,13.27
2023-05-08T12:45:53.189Z,10.77
2023-05-08T12:48:20.538Z,11.77
2023-05-08T12:50:47.577Z,11.63
2023-05-08T12:53:16.600Z,11.00
2023-05-08T12:55:57.458Z,10.93
2023-05-08T12:58:25.751Z,11.23
2023-05-08T13:00:53.903Z,10.90
2023-05-08T13:03:27.849Z,11.70
2023-05-08T13:05:56.493Z,10.00
2023-05-08T13:08:42.324Z,10.77
2023-05-08T13:11:09.442Z,11.77
2023-05-08T13:13:37.092Z,10.73
2023-05-08T13:16:05.901Z,11.37
2023-05-08T13:18:33.532Z,10.60
2023-05-08T13:21:02.257Z,11.23
2023-05-08T13:23:29.358Z,10.37
2023-05-08T13:25:56.218Z,10.33
2023-05-08T13:28:26.907Z,10.73
2023-05-08T13:30:59.245Z,11.60
2023-05-08T13:33:30.945Z,12.03
2023-05-08T13:36:01.456Z,10.77
2023-05-08T13:38:28.265Z,10.53
2023-05-08T13:40:54.997Z,9.87
2023-05-08T13:43:21.785Z,10.60
2023-05-08T13:45:48.589Z,10.40
2023-05-08T13:48:15.705Z,9.70
2023-05-08T13:50:42.516Z,9.27
2023-05-08T13:53:10.156Z,10.10
2023-05-08T13:55:37.081Z,9.87
2023-05-08T13:58:04.319Z,9.80
2023-05-08T14:00:31.602Z,10.40
2023-05-08T14:02:58.478Z,9.70
2023-05-08T14:05:25.368Z,11.20
2023-05-08T14:07:52.054Z,10.57
2023-05-08T14:10:18.907Z,11.20
2023-05-08T14:12:46.870Z,10.23
2023-05-08T14:15:14.060Z,10.33
2023-05-08T14:17:42.414Z,11.67
2023-05-08T14:20:11.707Z,11.57
2023-05-08T14:22:39.076Z,11.90
2023-05-08T14:25:06.983Z,11.33
2023-05-08T14:27:36.236Z,13.87
2023-05-08T14:30:03.658Z,12.07
2023-05-08T14:32:33.117Z,12.07
2023-05-08T14:35:00.062Z,13.33
2023-05-08T14:37:29.918Z,13.67
2023-05-08T14:40:06.803Z,15.77
2023-05-08T14:42:37.107Z,15.93
2023-05-08T14:45:04.386Z,17.50
2023-05-08T14:47:33.045Z,17.80
2023-05-08T14:49:59.833Z,17.50
2023-05-08T14:52:26.510Z,17.73
2023-05-08T14:54:53.936Z,17.20
2023-05-08T14:57:21.079Z,17.77
2023-05-08T14:59:55.022Z,16.83
2023-05-08T15:02:23.548Z,17.20
2023-05-08T15:04:50.478Z,15.53
2023-05-08T15:07:17.344Z,15.60
2023-05-08T15:09:44.211Z,15.87
2023-05-08T15:12:11.306Z,15.40
2023-05-08T15:14:37.988Z,12.87
2023-05-08T15:17:04.896Z,13.37
2023-05-08T15:19:32.614Z,14.90
2023-05-08T15:21:59.365Z,14.83
2023-05-08T15:24:26.094Z,16.53
2023-05-08T15:26:52.985Z,15.37
2023-05-08T15:29:19.823Z,15.53
2023-05-08T15:31:46.772Z,17.63
2023-05-08T15:34:13.898Z,16.30
2023-05-08T15:36:40.602Z,16.87
2023-05-08T15:39:07.462Z,16.67
2023-05-08T15:41:36.423Z,16.93
2023-05-08T15:44:04.252Z,15.90
2023-05-08T15:46:31.567Z,16.97
2023-05-08T15:49:00.388Z,15.93
2023-05-08T15:51:29.201Z,16.80
2023-05-08T15:53:56.309Z,14.80
2023-05-08T15:56:24.730Z,15.17
2023-05-08T15:58:52.086Z,14.33
2023-05-08T16:01:19.636Z,14.00
2023-05-08T16:03:46.790Z,13.00
2023-05-08T16:06:13.569Z,12.73
2023-05-08T16:08:40.604Z,12.80
2023-05-08T16:11:07.613Z,12.10
2023-05-08T16:13:34.863Z,12.20
2023-05-08T16:16:04.408Z,12.13
2023-05-08T16:18:31.219Z,11.93
2023-05-08T16:20:58.089Z,10.53
2023-05-08T16:23:24.807Z,11.10
2023-05-08T16:25:51.594Z,11.43
2023-05-08T16:28:18.353Z,11.47
2023-05-08T16:30:45.382Z,11.40
2023-05-08T16:33:12.637Z,9.83
2023-05-08T16:35:40.179Z,10.83
2023-05-08T16:38:10.080Z,9.53
2023-05-08T16:40:40.131Z,8.70
2023-05-08T16:43:08.900Z,10.13
2023-05-08T16:45:35.713Z,9.00
2023-05-08T16:48:03.012Z,9.07
2023-05-08T16:50:29.887Z,9.80
2023-05-08T16:52:57.683Z,7.50
2023-05-08T16:55:24.780Z,8.07
2023-05-08T16:57:53.690Z,7.37
2023-05-08T17:00:21.534Z,7.40
2023-05-08T17:02:48.549Z,8.00
2023-05-08T17:05:15.675Z,7.80
2023-05-08T17:07:42.742Z,6.87
2023-05-08T17:10:10.911Z,8.37
2023-05-08T17:12:37.655Z,7.90
2023-05-08T17:15:05.290Z,8.23
2023-05-08T17:17:32.128Z,8.10
2023-05-08T17:19:59.154Z,7.90
2023-05-08T17:22:26.065Z,8.57
2023-05-08T17:24:52.901Z,8.80
2023-05-08T17:27:19.729Z,8.50
2023-05-08T17:29:46.677Z,8.33
2023-05-08T17:32:13.445Z,8.20
2023-05-08T17:34:40.355Z,8.33
2023-05-08T17:37:07.206Z,8.10
2023-05-08T17:39:33.966Z,8.20
2023-05-08T17:42:00.993Z,8.67
2023-05-08T17:44:27.792Z,9.00
2023-05-08T17:46:59.931Z,8.70
2023-05-08T17:49:26.739Z,8.13
2023-05-08T17:51:53.507Z,8.53
2023-05-08T17:54:21.680Z,7.90
2023-05-08T17:56:48.706Z,8.50
2023-05-08T17:59:15.629Z,8.23
2023-05-08T18:01:42.523Z,8.37
2023-05-08T18:04:09.517Z,7.80
2023-05-08T18:06:36.379Z,7.93
2023-05-08T18:09:03.322Z,8.43
2023-05-08T18:11:30.337Z,8.00
2023-05-08T18:13:57.260Z,8.20
2023-05-08T18:16:26.393Z,7.57
2023-05-08T18:19:02.624Z,7.73
2023-05-08T18:21:33.836Z,7.93
2023-05-08T18:24:00.925Z,7.87
2023-05-08T18:26:27.796Z,7.13
2023-05-08T18:28:55.398Z,8.20
2023-05-08T18:31:22.531Z,7.03
2023-05-08T18:33:49.345Z,8.10
2023-05-08T18:36:16.280Z,7.43
2023-05-08T18:38:43.030Z,7.73
2023-05-08T18:41:10.059Z,7.40
2023-05-08T18:43:39.531Z,7.40
2023-05-08T18:46:12.573Z,7.80
2023-05-08T18:48:41.996Z,7.83
2023-05-08T18:51:09.576Z,7.93
2023-05-08T18:53:40.966Z,7.50
2023-05-08T18:56:07.894Z,8.03
2023-05-08T18:58:35.256Z,7.83
2023-05-08T19:01:02.186Z,7.57
2023-05-08T19:03:29.617Z,7.67
2023-05-08T19:05:59.638Z,7.30
2023-05-08T19:08:26.695Z,7.70
2023-05-08T19:10:53.734Z,7.90
2023-05-08T19:13:20.683Z,7.27
2023-05-08T19:15:47.547Z,8.10
2023-05-08T19:18:14.857Z,7.80
2023-05-08T19:20:42.187Z,8.17
2023-05-08T19:23:09.252Z,7.27
2023-05-08T19:25:40.626Z,7.57
2023-05-08T19:28:07.437Z,7.30
2023-05-08T19:30:34.336Z,7.23
2023-05-08T19:33:01.149Z,7.67
2023-05-08T19:35:28.073Z,6.87
2023-05-08T19:37:56.436Z,8.10
2023-05-08T19:40:26.288Z,7.23
2023-05-08T19:42:53.122Z,7.90
2023-05-08T19:45:20.282Z,8.53
2023-05-08T19:47:49.881Z,7.90
2023-05-08T19:50:20.915Z,7.87
2023-05-08T19:52:49.058Z,8.47
2023-05-08T19:55:16.567Z,9.10
2023-05-08T19:57:43.587Z,9.03
2023-05-08T20:00:11.551Z,9.37
2023-05-08T20:02:39.567Z,9.27
2023-05-08T20:07:36.828Z,9.30
2023-05-08T20:10:06.128Z,9.03
2023-05-08T20:12:33.164Z,9.73
2023-05-08T20:15:00.043Z,9.53
2023-05-08T20:17:36.708Z,10.77
2023-05-08T20:20:03.796Z,9.83
2023-05-08T20:22:41.252Z,11.23
2023-05-08T20:25:11.776Z,11.60
2023-05-08T20:27:39.801Z,11.80
2023-05-08T20:30:07.705Z,12.33
2023-05-08T20:32:34.560Z,12.10
2023-05-08T20:35:01.963Z,11.87
2023-05-08T20:37:28.802Z,12.47
2023-05-08T20:39:56.595Z,11.93
2023-05-08T20:42:23.375Z,12.20
2023-05-08T20:44:50.432Z,12.83
2023-05-08T20:47:17.251Z,12.37
2023-05-08T20:49:44.071Z,12.57
2023-05-08T20:52:10.829Z,13.40
2023-05-08T20:54:37.664Z,12.83
2023-05-08T20:57:04.524Z,12.80
2023-05-08T20:59:31.449Z,13.03
2023-05-08T21:01:58.309Z,13.63
2023-05-08T21:04:25.268Z,13.47
2023-05-08T21:06:52.392Z,13.30
2023-05-08T21:09:19.286Z,13.07
2023-05-08T21:11:46.223Z,12.17
2023-05-08T21:14:12.925Z,12.10
2023-05-08T21:16:42.392Z,12.67
2023-05-08T21:19:11.299Z,11.90
2023-05-08T21:21:38.201Z,11.47
2023-05-08T21:24:05.706Z,11.43
2023-05-08T21:26:32.624Z,10.27
2023-05-08T21:29:04.377Z,11.70
2023-05-08T21:31:32.372Z,11.23
2023-05-08T21:33:59.406Z,11.00
2023-05-08T21:36:26.112Z,10.53
2023-05-08T21:38:52.970Z,10.60
2023-05-08T21:41:19.685Z,10.10
2023-05-08T21:43:46.525Z,9.77
2023-05-08T21:46:15.849Z,9.53
2023-05-08T21:48:45.966Z,9.10
2023-05-08T21:51:15.740Z,8.03
2023-05-08T21:53:42.649Z,8.07
2023-05-08T21:56:09.868Z,7.70
2023-05-08T21:58:38.947Z,7.80
2023-05-08T22:01:11.791Z,7.03
2023-05-08T22:03:46.246Z,7.17
2023-05-08T22:06:16.082Z,6.50
2023-05-08T22:08:51.573Z,7.17
2023-05-08T22:11:19.213Z,5.90
2023-05-08T22:13:45.979Z,6.27
2023-05-08T22:16:12.930Z,6.43
2023-05-08T22:18:39.661Z,6.10
2023-05-08T22:21:06.569Z,5.10
2023-05-08T22:23:37.346Z,5.80
2023-05-08T22:26:04.890Z,5.23
2023-05-08T22:28:31.789Z,5.47
2023-05-08T22:30:59.254Z,5.83
2023-05-08T22:33:26.212Z,4.90
2023-05-08T22:35:53.065Z,4.90
2023-05-08T22:38:19.842Z,5.20
2023-05-08T22:40:47.849Z,4.80
2023-05-08T22:43:14.785Z,4.87
2023-05-08T22:45:41.708Z,4.60
2023-05-08T22:48:08.693Z,5.13
2023-05-08T22:50:36.639Z,5.17
2023-05-08T22:53:08.378Z,4.63
2023-05-08T22:55:35.928Z,5.27
2023-05-08T22:58:03.173Z,5.13
2023-05-08T23:00:30.162Z,4.97
2023-05-08T23:02:57.484Z,5.43
2023-05-08T23:05:24.272Z,6.23
2023-05-08T23:07:51.058Z,5.13
2023-05-08T23:10:18.698Z,5.03
2023-05-08T23:12:45.513Z,4.60
2023-05-08T23:15:13.081Z,4.80
2023-05-08T23:17:40.301Z,5.60
2023-05-08T23:20:08.718Z,4.93
2023-05-08T23:22:35.635Z,5.10
2023-05-08T23:25:02.488Z,4.50
2023-05-08T23:27:29.247Z,4.73
2023-05-08T23:29:56.690Z,4.90
2023-05-08T23:32:23.559Z,4.30
2023-05-08T23:34:50.311Z,5.33
2023-05-08T23:37:17.203Z,4.43
2023-05-08T23:39:44.116Z,4.60
2023-05-08T23:42:11.428Z,4.70
2023-05-08T23:44:38.262Z,4.60
2023-05-08T23:47:05.155Z,5.87
2023-05-08T23:49:31.897Z,5.37
2023-05-08T23:51:58.806Z,4.73
2023-05-08T23:54:25.725Z,4.73
2023-05-08T23:56:52.594Z,4.80
2023-05-08T23:59:19.362Z,4.70
